Terminal Aerodrome Forecast
Issued by NWS Charleston, WV

Current Version | Previous Version | Text Only | Print | Product List | Glossary Off
Versions: 1 2 3 4 5 6 7 8 9 10 11 12 13 14 15 16 17 18 19 20 21 22 23 24 25 26 27 28

000
FTUS41 KRLX 242347
TAFEKN
TAF
KEKN 242347Z 2500/2524 29004KT P6SM SCT040
     FM250300 00000KT 5SM BR SCT150
     FM250500 00000KT 2SM BR SCT150
     FM250600 00000KT 1SM BR SCT001
     FM251300 26004KT 5SM BR SCT040
     FM251400 26004KT P6SM SCT040
     FM251800 27006KT P6SM SCT250
     FM252300 29005KT 6SM SHRA VCTS BKN050CB=

USA.gov is the U.S. government's official web portal to all federal, state and local government web resources and services.